createdAt,value
2019-02-25T00:00:55.702Z,50.40
2019-02-25T00:02:57.306Z,50.51
2019-02-25T00:04:58.891Z,50.44
2019-02-25T00:07:00.500Z,50.49
2019-02-25T00:09:02.816Z,50.72
2019-02-25T00:11:04.456Z,50.79
2019-02-25T00:13:06.057Z,50.86
2019-02-25T00:15:07.697Z,50.84
2019-02-25T00:17:09.284Z,51.00
2019-02-25T00:19:10.872Z,51.03
2019-02-25T00:21:12.515Z,51.12
2019-02-25T00:23:14.149Z,51.21
2019-02-25T00:25:15.795Z,51.14
2019-02-25T00:27:17.393Z,51.15
2019-02-25T00:29:18.985Z,51.24
2019-02-25T00:31:20.613Z,51.18
2019-02-25T00:33:22.234Z,51.24
2019-02-25T00:35:23.830Z,51.26
2019-02-25T00:37:25.491Z,51.24
2019-02-25T00:39:27.089Z,51.23
2019-02-25T00:41:28.683Z,51.26
2019-02-25T00:43:30.305Z,51.21
2019-02-25T00:45:31.906Z,51.23
2019-02-25T00:47:33.511Z,51.15
2019-02-25T00:49:35.105Z,51.19
2019-02-25T00:51:36.703Z,51.21
2019-02-25T00:53:38.322Z,51.32
2019-02-25T00:55:39.932Z,51.17
2019-02-25T00:57:41.558Z,51.20
2019-02-25T00:59:43.154Z,51.08
2019-02-25T01:01:44.764Z,51.02
2019-02-25T01:03:46.381Z,51.01
2019-02-25T01:05:47.976Z,51.07
2019-02-25T01:07:49.569Z,51.16
2019-02-25T01:09:51.201Z,51.12
2019-02-25T01:11:52.798Z,51.23
2019-02-25T01:13:54.397Z,51.40
2019-02-25T01:15:56.018Z,51.78
2019-02-25T01:17:57.600Z,51.80
2019-02-25T01:19:59.391Z,52.14
2019-02-25T01:22:01.055Z,52.21
2019-02-25T01:24:02.656Z,52.74
2019-02-25T01:26:04.307Z,53.28
2019-02-25T01:28:05.917Z,53.06
2019-02-25T01:30:07.514Z,53.31
2019-02-25T01:32:09.105Z,53.37
2019-02-25T01:34:10.698Z,53.54
2019-02-25T01:36:12.344Z,53.56
2019-02-25T01:38:15.641Z,53.89
2019-02-25T01:40:15.595Z,53.89
2019-02-25T01:42:17.204Z,54.02
2019-02-25T01:44:18.815Z,54.21
2019-02-25T01:46:20.446Z,54.03
2019-02-25T01:48:22.073Z,54.28
2019-02-25T01:50:23.680Z,54.62
2019-02-25T01:52:25.288Z,54.08
2019-02-25T01:54:26.882Z,53.61
2019-02-25T01:56:28.464Z,53.51
2019-02-25T01:58:30.093Z,53.43
2019-02-25T02:00:31.694Z,53.45
2019-02-25T02:02:33.290Z,53.43
2019-02-25T02:04:34.894Z,53.44
2019-02-25T02:06:36.500Z,53.35
2019-02-25T02:08:38.130Z,53.23
2019-02-25T02:10:39.721Z,53.20
2019-02-25T02:12:41.329Z,53.01
2019-02-25T02:14:42.928Z,53.00
2019-02-25T02:16:44.525Z,52.83
2019-02-25T02:18:46.136Z,52.76
2019-02-25T02:20:47.780Z,52.81
2019-02-25T02:22:49.430Z,52.62
2019-02-25T02:24:51.056Z,52.53
2019-02-25T02:26:52.653Z,52.51
2019-02-25T02:28:54.265Z,52.40
2019-02-25T02:30:55.890Z,52.42
2019-02-25T02:32:57.494Z,52.32
2019-02-25T02:34:59.091Z,52.38
2019-02-25T02:37:00.707Z,52.39
2019-02-25T02:39:02.311Z,52.38
2019-02-25T02:41:03.957Z,52.37
2019-02-25T02:43:05.558Z,52.54
2019-02-25T02:45:07.164Z,52.46
2019-02-25T02:47:08.757Z,52.93
2019-02-25T02:49:10.368Z,53.06
2019-02-25T02:51:12.000Z,53.03
2019-02-25T02:53:13.607Z,53.06
2019-02-25T02:55:15.247Z,53.17
2019-02-25T02:57:16.860Z,53.25
2019-02-25T02:59:18.488Z,53.12
2019-02-25T03:01:20.133Z,53.24
2019-02-25T03:03:21.729Z,53.17
2019-02-25T03:05:23.364Z,53.17
2019-02-25T03:07:24.976Z,53.24
2019-02-25T03:09:26.577Z,53.25
2019-02-25T03:11:28.262Z,53.31
2019-02-25T03:13:29.878Z,53.46
2019-02-25T03:15:31.493Z,53.39
2019-02-25T03:17:33.083Z,53.66
2019-02-25T03:19:34.696Z,53.83
2019-02-25T03:21:36.289Z,53.82
2019-02-25T03:23:37.913Z,53.98
2019-02-25T03:25:39.523Z,54.16
2019-02-25T03:27:41.136Z,54.19
2019-02-25T03:29:42.733Z,54.21
2019-02-25T03:31:44.329Z,54.38
2019-02-25T03:33:45.981Z,54.57
2019-02-25T03:35:47.578Z,54.23
2019-02-25T03:37:49.192Z,54.09
2019-02-25T03:39:50.778Z,53.96
2019-02-25T03:41:52.415Z,54.15
2019-02-25T03:43:54.108Z,52.65
2019-02-25T03:45:55.693Z,49.91
2019-02-25T03:47:57.293Z,48.11
2019-02-25T03:49:58.900Z,47.09
2019-02-25T03:52:00.503Z,46.93
2019-02-25T03:54:02.626Z,47.37
2019-02-25T03:56:04.221Z,47.50
2019-02-25T03:58:05.829Z,47.61
2019-02-25T04:00:07.431Z,48.75
2019-02-25T04:02:09.040Z,48.56
2019-02-25T04:04:10.674Z,48.52
2019-02-25T04:06:12.262Z,48.33
2019-02-25T04:08:13.858Z,48.35
2019-02-25T04:10:15.490Z,48.46
2019-02-25T04:12:17.093Z,48.54
2019-02-25T04:14:18.690Z,48.69
2019-02-25T04:16:20.318Z,48.79
2019-02-25T04:18:21.915Z,48.88
2019-02-25T04:20:23.551Z,49.07
2019-02-25T04:22:25.145Z,49.09
2019-02-25T04:24:26.737Z,49.19
2019-02-25T04:26:28.354Z,49.26
2019-02-25T04:28:29.939Z,49.31
2019-02-25T04:30:31.575Z,49.39
2019-02-25T04:32:33.174Z,49.45
2019-02-25T04:34:34.789Z,49.52
2019-02-25T04:36:36.404Z,49.55
2019-02-25T04:38:38.003Z,49.60
2019-02-25T04:40:39.621Z,49.64
2019-02-25T04:42:41.216Z,49.66
2019-02-25T04:44:42.809Z,49.72
2019-02-25T04:46:44.424Z,49.74
2019-02-25T04:48:46.021Z,49.75
2019-02-25T04:50:47.660Z,49.79
2019-02-25T04:52:49.249Z,49.78
2019-02-25T04:54:50.868Z,49.82
2019-02-25T04:56:52.480Z,49.80
2019-02-25T04:58:54.083Z,49.75
2019-02-25T05:00:55.710Z,49.69
2019-02-25T05:02:57.320Z,49.62
2019-02-25T05:04:58.932Z,49.57
2019-02-25T05:07:00.543Z,49.58
2019-02-25T05:09:02.151Z,49.67
2019-02-25T05:11:04.083Z,49.75
2019-02-25T05:13:05.685Z,49.81
2019-02-25T05:15:07.281Z,49.89
2019-02-25T05:17:08.889Z,49.95
2019-02-25T05:19:10.498Z,50.05
2019-02-25T05:21:12.097Z,50.07
2019-02-25T05:23:13.712Z,49.99
2019-02-25T05:25:15.338Z,49.94
2019-02-25T05:27:16.948Z,49.77
2019-02-25T05:29:18.541Z,49.57
2019-02-25T05:31:20.165Z,49.33
2019-02-25T05:33:21.782Z,49.07
2019-02-25T05:35:23.406Z,48.80
2019-02-25T05:37:25.027Z,48.63
2019-02-25T05:39:26.671Z,48.54
2019-02-25T05:41:28.274Z,48.32
2019-02-25T05:43:29.862Z,48.33
2019-02-25T05:45:31.499Z,48.21
2019-02-25T05:47:33.116Z,48.17
2019-02-25T05:49:34.710Z,48.07
2019-02-25T05:51:36.348Z,47.98
2019-02-25T05:53:37.942Z,47.93
2019-02-25T05:55:39.593Z,48.03
2019-02-25T05:57:41.221Z,48.07
2019-02-25T05:59:42.813Z,48.10
2019-02-25T06:01:44.420Z,48.21
2019-02-25T06:03:46.046Z,48.29
2019-02-25T06:05:47.638Z,48.35
2019-02-25T06:07:49.262Z,48.46
2019-02-25T06:09:50.854Z,48.47
2019-02-25T06:11:52.446Z,48.56
2019-02-25T06:13:54.043Z,48.65
2019-02-25T06:15:55.656Z,48.72
2019-02-25T06:17:57.300Z,48.75
2019-02-25T06:19:58.897Z,48.82
2019-02-25T06:22:00.494Z,48.86
2019-02-25T06:24:02.088Z,48.92
2019-02-25T06:26:03.731Z,48.95
2019-02-25T06:28:05.339Z,49.03
2019-02-25T06:30:06.987Z,49.04
2019-02-25T06:32:08.575Z,49.07
2019-02-25T06:34:10.179Z,49.12
2019-02-25T06:36:11.808Z,49.15
2019-02-25T06:38:13.416Z,49.22
2019-02-25T06:40:15.837Z,49.23
2019-02-25T06:42:16.681Z,49.25
2019-02-25T06:44:18.358Z,49.26
2019-02-25T06:46:19.936Z,49.25
2019-02-25T06:48:21.545Z,49.22
2019-02-25T06:50:23.179Z,49.15
2019-02-25T06:52:24.788Z,49.09
2019-02-25T06:54:26.440Z,49.03
2019-02-25T06:56:28.034Z,48.93
2019-02-25T06:58:29.635Z,48.83
2019-02-25T07:00:31.277Z,48.63
2019-02-25T07:02:32.888Z,48.50
2019-02-25T07:04:35.242Z,48.34
2019-02-25T07:06:41.416Z,48.21
2019-02-25T07:08:54.633Z,48.08
2019-02-25T07:10:58.739Z,47.95
2019-02-25T07:13:00.348Z,47.89
2019-02-25T07:15:03.921Z,47.86
2019-02-25T07:17:07.406Z,47.83
2019-02-25T07:19:10.536Z,47.82
2019-02-25T07:21:14.827Z,47.85
2019-02-25T07:23:32.057Z,47.90
2019-02-25T07:25:38.241Z,47.93
2019-02-25T07:27:45.453Z,48.04
2019-02-25T07:29:58.924Z,48.07
2019-02-25T07:32:06.282Z,48.16
2019-02-25T07:34:11.625Z,48.19
2019-02-25T07:36:28.970Z,48.23
2019-02-25T07:38:38.981Z,48.28
2019-02-25T07:40:38.000Z,48.35
2019-02-25T07:42:39.633Z,48.39
2019-02-25T07:44:44.791Z,48.42
2019-02-25T07:46:52.101Z,48.46
2019-02-25T07:49:06.457Z,48.48
2019-02-25T07:51:11.688Z,48.53
2019-02-25T07:53:23.231Z,48.58
2019-02-25T07:55:26.426Z,48.58
2019-02-25T07:57:28.027Z,48.62
2019-02-25T07:59:29.663Z,48.66
2019-02-25T08:01:32.016Z,48.69
2019-02-25T08:03:34.511Z,48.67
2019-02-25T08:05:51.721Z,48.66
2019-02-25T08:08:10.038Z,48.62
2019-02-25T08:10:17.398Z,48.61
2019-02-25T08:12:24.798Z,48.51
2019-02-25T08:14:27.233Z,48.47
2019-02-25T08:16:32.315Z,48.33
2019-02-25T08:18:35.877Z,48.23
2019-02-25T08:20:58.377Z,48.07
2019-02-25T08:23:09.890Z,47.96
2019-02-25T08:25:28.151Z,47.81
2019-02-25T08:27:33.420Z,47.59
2019-02-25T08:29:40.755Z,47.33
2019-02-25T08:31:52.255Z,47.12
2019-02-25T08:33:59.529Z,46.83
2019-02-25T08:36:05.721Z,46.68
2019-02-25T08:38:09.926Z,46.62
2019-02-25T08:40:28.311Z,46.52
2019-02-25T08:42:31.127Z,46.44
2019-02-25T08:44:32.416Z,46.51
2019-02-25T08:46:34.860Z,46.54
2019-02-25T08:48:51.376Z,46.52
2019-02-25T08:50:53.006Z,46.57
2019-02-25T08:52:54.616Z,46.48
2019-02-25T08:54:56.230Z,46.40
2019-02-25T08:56:57.826Z,46.40
2019-02-25T08:58:59.434Z,46.28
2019-02-25T09:01:01.040Z,46.30
2019-02-25T09:03:02.666Z,46.33
2019-02-25T09:05:04.271Z,46.33
2019-02-25T09:07:05.897Z,46.36
2019-02-25T09:09:07.490Z,46.38
2019-02-25T09:11:14.215Z,46.40
2019-02-25T09:13:10.763Z,46.41
2019-02-25T09:15:12.366Z,46.46
2019-02-25T09:17:15.970Z,46.45
2019-02-25T09:19:15.592Z,46.45
2019-02-25T09:21:17.188Z,46.48
2019-02-25T09:23:18.815Z,46.44
2019-02-25T09:25:20.433Z,46.47
2019-02-25T09:27:22.021Z,46.50
2019-02-25T09:29:23.619Z,46.50
2019-02-25T09:31:25.219Z,46.54
2019-02-25T09:33:26.854Z,46.50
2019-02-25T09:35:28.455Z,46.49
2019-02-25T09:37:30.055Z,46.49
2019-02-25T09:39:31.651Z,46.46
2019-02-25T09:41:33.246Z,46.43
2019-02-25T09:43:34.859Z,46.39
2019-02-25T09:45:36.481Z,46.45
2019-02-25T09:47:38.074Z,46.40
2019-02-25T09:49:39.698Z,46.34
2019-02-25T09:51:41.281Z,46.34
2019-02-25T09:53:42.892Z,46.26
2019-02-25T09:55:44.523Z,46.23
2019-02-25T09:57:46.118Z,46.17
2019-02-25T09:59:47.728Z,46.10
2019-02-25T10:01:49.339Z,46.01
2019-02-25T10:03:50.938Z,45.96
2019-02-25T10:05:52.571Z,45.90
2019-02-25T10:07:54.179Z,45.88
2019-02-25T10:09:55.784Z,45.86
2019-02-25T10:11:57.382Z,45.83
2019-02-25T10:13:58.978Z,45.72
2019-02-25T10:16:00.616Z,45.60
2019-02-25T10:18:02.215Z,45.57
2019-02-25T10:20:03.809Z,45.48
2019-02-25T10:22:05.405Z,45.42
2019-02-25T10:24:07.016Z,45.40
2019-02-25T10:26:08.620Z,45.42
2019-02-25T10:28:10.249Z,45.40
2019-02-25T10:30:11.853Z,45.39
2019-02-25T10:32:13.500Z,45.36
2019-02-25T10:34:15.108Z,45.46
2019-02-25T10:36:16.719Z,45.44
2019-02-25T10:38:19.561Z,45.47
2019-02-25T10:40:23.997Z,45.53
2019-02-25T10:42:21.714Z,45.57
2019-02-25T10:44:23.309Z,45.52
2019-02-25T10:46:24.920Z,45.56
2019-02-25T10:48:26.559Z,45.56
2019-02-25T10:50:28.822Z,45.65
2019-02-25T10:52:29.796Z,45.73
2019-02-25T10:54:31.407Z,45.76
2019-02-25T10:56:33.010Z,45.67
2019-02-25T10:58:35.981Z,45.76
2019-02-25T11:00:37.813Z,45.67
2019-02-25T11:02:44.019Z,45.78
2019-02-25T11:04:39.564Z,45.81
2019-02-25T11:06:41.158Z,45.85
2019-02-25T11:08:43.675Z,45.78
2019-02-25T11:10:47.002Z,45.82
2019-02-25T11:12:47.688Z,45.91
2019-02-25T11:14:49.285Z,45.92
2019-02-25T11:16:52.238Z,45.86
2019-02-25T11:18:54.418Z,45.75
2019-02-25T11:20:54.217Z,45.76
2019-02-25T11:22:55.800Z,45.78
2019-02-25T11:24:57.847Z,45.69
2019-02-25T11:27:00.894Z,45.66
2019-02-25T11:29:00.726Z,45.61
2019-02-25T11:31:02.322Z,45.59
2019-02-25T11:33:03.956Z,45.53
2019-02-25T11:35:06.291Z,45.60
2019-02-25T11:37:07.226Z,45.51
2019-02-25T11:39:09.487Z,45.54
2019-02-25T11:41:11.275Z,45.55
2019-02-25T11:43:13.244Z,45.55
2019-02-25T11:45:13.842Z,45.54
2019-02-25T11:47:15.438Z,45.53
2019-02-25T11:49:17.034Z,45.54
2019-02-25T11:51:19.361Z,45.52
2019-02-25T11:53:20.957Z,45.53
2019-02-25T11:55:22.543Z,45.55
2019-02-25T11:57:24.146Z,45.52
2019-02-25T11:59:25.745Z,45.61
2019-02-25T12:01:28.574Z,45.49
2019-02-25T12:03:30.179Z,45.48
2019-02-25T12:05:32.007Z,45.54
2019-02-25T12:07:33.620Z,45.62
2019-02-25T12:09:35.279Z,45.63
2019-02-25T12:11:36.874Z,45.60
2019-02-25T12:13:38.477Z,45.53
2019-02-25T12:15:40.079Z,45.51
2019-02-25T12:17:42.419Z,45.50
2019-02-25T12:19:44.023Z,45.54
2019-02-25T12:21:45.617Z,45.55
2019-02-25T12:23:47.258Z,45.55
2019-02-25T12:25:48.853Z,45.59
2019-02-25T12:27:50.449Z,45.67
2019-02-25T12:29:52.040Z,45.65
2019-02-25T12:31:53.648Z,45.74
2019-02-25T12:33:55.233Z,45.77
2019-02-25T12:35:56.834Z,45.96
2019-02-25T12:37:58.452Z,46.01
2019-02-25T12:40:00.050Z,45.84
2019-02-25T12:42:01.696Z,45.91
2019-02-25T12:44:03.300Z,45.95
2019-02-25T12:46:04.903Z,45.77
2019-02-25T12:48:06.540Z,45.79
2019-02-25T12:50:08.134Z,45.65
2019-02-25T12:52:09.730Z,45.57
2019-02-25T12:54:11.358Z,45.46
2019-02-25T12:56:12.964Z,45.40
2019-02-25T12:58:14.564Z,45.33
2019-02-25T13:00:16.172Z,45.42
2019-02-25T13:02:17.781Z,45.58
2019-02-25T13:04:19.406Z,45.49
2019-02-25T13:06:20.992Z,45.46
2019-02-25T13:08:22.600Z,45.39
2019-02-25T13:10:24.190Z,45.48
2019-02-25T13:12:25.812Z,45.44
2019-02-25T13:14:27.422Z,45.39
2019-02-25T13:16:29.023Z,45.34
2019-02-25T13:18:30.666Z,45.28
2019-02-25T13:20:32.267Z,45.24
2019-02-25T13:22:34.584Z,45.21
2019-02-25T13:24:37.341Z,45.28
2019-02-25T13:26:39.402Z,45.33
2019-02-25T13:28:39.553Z,45.33
2019-02-25T13:30:41.156Z,45.55
2019-02-25T13:32:42.778Z,45.79
2019-02-25T13:34:44.408Z,45.87
2019-02-25T13:36:46.052Z,45.98
2019-02-25T13:38:47.706Z,46.05
2019-02-25T13:40:49.335Z,46.05
2019-02-25T13:42:50.960Z,46.08
2019-02-25T13:44:52.600Z,46.16
2019-02-25T13:46:54.232Z,46.19
2019-02-25T13:48:57.471Z,46.24
2019-02-25T13:50:57.542Z,46.25
2019-02-25T13:52:59.160Z,46.48
2019-02-25T13:55:00.782Z,46.80
2019-02-25T13:57:02.459Z,46.98
2019-02-25T13:59:04.148Z,47.23
2019-02-25T14:01:05.832Z,47.50
2019-02-25T14:03:07.453Z,47.69
2019-02-25T14:05:09.104Z,47.71
2019-02-25T14:07:10.716Z,47.90
2019-02-25T14:09:12.366Z,48.17
2019-02-25T14:11:14.014Z,48.40
2019-02-25T14:13:15.639Z,48.44
2019-02-25T14:15:17.319Z,48.56
2019-02-25T14:17:18.944Z,48.73
2019-02-25T14:19:20.580Z,48.98
2019-02-25T14:21:22.248Z,48.95
2019-02-25T14:23:23.877Z,49.28
2019-02-25T14:25:25.536Z,49.43
2019-02-25T14:27:29.490Z,49.62
2019-02-25T14:29:28.936Z,49.74
2019-02-25T14:31:31.045Z,50.06
2019-02-25T14:33:35.526Z,49.91
2019-02-25T14:35:34.356Z,49.94
2019-02-25T14:37:35.968Z,50.03
2019-02-25T14:39:38.260Z,50.07
2019-02-25T14:41:39.274Z,50.06
2019-02-25T14:43:46.063Z,50.06
2019-02-25T14:45:46.203Z,50.09
2019-02-25T14:47:46.364Z,50.37
2019-02-25T14:49:45.938Z,50.54
2019-02-25T14:51:47.579Z,50.63
2019-02-25T14:53:51.680Z,50.56
2019-02-25T14:55:53.147Z,50.61
2019-02-25T14:57:54.979Z,50.50
2019-02-25T14:59:54.467Z,50.59
2019-02-25T15:01:56.993Z,50.58
2019-02-25T15:03:58.570Z,50.69
2019-02-25T15:05:59.453Z,50.73
2019-02-25T15:08:01.072Z,50.82
2019-02-25T15:10:02.912Z,50.91
2019-02-25T15:12:06.420Z,50.64
2019-02-25T15:14:08.138Z,50.97
2019-02-25T15:16:07.779Z,50.92
2019-02-25T15:18:09.391Z,50.74
2019-02-25T15:20:12.557Z,50.81
2019-02-25T15:22:12.705Z,50.89
2019-02-25T15:24:14.747Z,50.08
2019-02-25T15:26:17.395Z,49.24
2019-02-25T15:28:18.322Z,48.91
2019-02-25T15:30:20.722Z,48.58
2019-02-25T15:32:21.383Z,48.27
2019-02-25T15:34:23.016Z,48.22
2019-02-25T15:36:25.372Z,48.33
2019-02-25T15:38:28.682Z,48.39
2019-02-25T15:40:27.949Z,48.20
2019-02-25T15:42:30.100Z,47.92
2019-02-25T15:44:31.223Z,47.10
2019-02-25T15:46:32.830Z,47.53
2019-02-25T15:48:34.954Z,48.44
2019-02-25T15:50:36.089Z,47.12
2019-02-25T15:52:40.175Z,47.11
2019-02-25T15:54:41.404Z,47.25
2019-02-25T15:56:41.579Z,47.50
2019-02-25T15:58:43.195Z,47.31
2019-02-25T16:00:44.852Z,47.42
2019-02-25T16:02:46.476Z,47.95
2019-02-25T16:04:48.103Z,47.16
2019-02-25T16:06:53.348Z,47.53
2019-02-25T16:08:52.141Z,47.81
2019-02-25T16:10:53.387Z,48.76
2019-02-25T16:12:56.195Z,48.06
2019-02-25T16:14:56.351Z,48.29
2019-02-25T16:16:57.958Z,48.17
2019-02-25T16:18:59.559Z,47.80
2019-02-25T16:21:01.234Z,47.73
2019-02-25T16:23:05.193Z,47.79
2019-02-25T16:25:05.317Z,47.54
2019-02-25T16:27:06.231Z,47.52
2019-02-25T16:29:09.123Z,47.45
2019-02-25T16:31:10.558Z,47.62
2019-02-25T16:33:12.624Z,47.99
2019-02-25T16:35:12.882Z,47.63
2019-02-25T16:37:14.562Z,47.84
2019-02-25T16:39:16.261Z,47.79
2019-02-25T16:41:26.930Z,47.44
2019-02-25T16:43:19.530Z,47.51
2019-02-25T16:45:21.197Z,47.65
2019-02-25T16:47:31.866Z,47.28
2019-02-25T16:49:24.568Z,47.09
2019-02-25T16:51:27.598Z,48.61
2019-02-25T16:53:27.883Z,48.49
2019-02-25T16:55:29.506Z,48.44
2019-02-25T16:57:31.150Z,48.29
2019-02-25T16:59:32.800Z,47.16
2019-02-25T17:01:35.057Z,47.16
2019-02-25T17:03:37.585Z,47.54
2019-02-25T17:05:39.690Z,47.01
2019-02-25T17:07:40.405Z,47.28
2019-02-25T17:09:42.916Z,47.37
2019-02-25T17:11:43.995Z,47.47
2019-02-25T17:13:45.254Z,47.30
2019-02-25T17:15:46.902Z,47.55
2019-02-25T17:17:48.535Z,47.71
2019-02-25T17:19:51.453Z,47.85
2019-02-25T17:21:51.887Z,47.67
2019-02-25T17:23:54.068Z,48.87
2019-02-25T17:25:55.191Z,48.55
2019-02-25T17:27:56.835Z,47.67
2019-02-25T17:29:59.816Z,47.75
2019-02-25T17:32:01.891Z,48.02
2019-02-25T17:34:01.799Z,48.18
2019-02-25T17:36:03.419Z,47.61
2019-02-25T17:38:05.395Z,47.54
2019-02-25T17:40:08.472Z,47.09
2019-02-25T17:42:08.367Z,47.53
2019-02-25T17:44:10.021Z,47.08
2019-02-25T17:46:12.029Z,47.29
2019-02-25T17:48:14.144Z,46.71
2019-02-25T17:50:15.053Z,47.01
2019-02-25T17:52:18.405Z,46.65
2019-02-25T17:54:18.382Z,47.34
2019-02-25T17:56:20.707Z,47.33
2019-02-25T17:58:22.073Z,47.51
2019-02-25T18:00:24.028Z,47.67
2019-02-25T18:02:25.649Z,47.28
2019-02-25T18:04:28.243Z,47.89
2019-02-25T18:06:30.126Z,46.68
2019-02-25T18:08:30.893Z,47.09
2019-02-25T18:10:32.380Z,47.17
2019-02-25T18:12:34.548Z,47.21
2019-02-25T18:14:36.971Z,47.20
2019-02-25T18:16:39.081Z,47.55
2019-02-25T18:18:41.207Z,47.77
2019-02-25T18:20:41.505Z,47.41
2019-02-25T18:22:43.154Z,47.47
2019-02-25T18:24:44.814Z,47.64
2019-02-25T18:26:47.026Z,48.38
2019-02-25T18:28:48.443Z,47.74
2019-02-25T18:30:49.725Z,47.49
2019-02-25T18:32:52.638Z,48.19
2019-02-25T18:34:53.898Z,47.48
2019-02-25T18:36:55.440Z,47.15
2019-02-25T18:38:56.381Z,48.00
2019-02-25T18:40:58.728Z,47.57
2019-02-25T18:43:00.370Z,47.84
2019-02-25T18:45:01.326Z,47.75
2019-02-25T18:47:02.944Z,47.30
2019-02-25T18:49:05.639Z,47.50
2019-02-25T18:51:06.263Z,47.64
2019-02-25T18:53:08.002Z,48.47
2019-02-25T18:55:11.144Z,47.52
2019-02-25T18:57:11.411Z,47.95
2019-02-25T18:59:15.537Z,47.40
2019-02-25T19:01:15.598Z,47.37
2019-02-25T19:03:16.365Z,47.90
2019-02-25T19:05:17.975Z,48.12
2019-02-25T19:07:19.637Z,48.13
2019-02-25T19:09:22.778Z,48.96
2019-02-25T19:11:23.563Z,48.65
2019-02-25T19:13:25.353Z,48.78
2019-02-25T19:15:26.261Z,48.77
2019-02-25T19:17:29.362Z,48.10
2019-02-25T19:19:33.720Z,47.93
2019-02-25T19:21:31.946Z,48.11
2019-02-25T19:23:36.932Z,47.63
2019-02-25T19:25:34.944Z,47.21
2019-02-25T19:27:36.673Z,47.91
2019-02-25T19:29:38.359Z,48.25
2019-02-25T19:31:42.543Z,48.13
2019-02-25T19:33:41.691Z,47.54
2019-02-25T19:35:43.315Z,47.80
2019-02-25T19:37:46.671Z,47.87
2019-02-25T19:39:48.346Z,47.93
2019-02-25T19:41:49.247Z,47.31
2019-02-25T19:43:58.661Z,47.78
2019-02-25T19:45:51.739Z,48.39
2019-02-25T19:47:55.367Z,48.52
2019-02-25T19:49:57.144Z,48.68
2019-02-25T19:51:56.743Z,47.79
2019-02-25T19:53:59.827Z,48.36
2019-02-25T19:56:00.027Z,48.72
2019-02-25T19:58:01.618Z,48.98
2019-02-25T20:00:03.308Z,49.43
2019-02-25T20:02:04.982Z,49.56
2019-02-25T20:04:08.721Z,49.63
2019-02-25T20:06:11.188Z,49.92
2019-02-25T20:08:10.150Z,50.20
2019-02-25T20:10:13.778Z,50.47
2019-02-25T20:12:13.452Z,49.92
2019-02-25T20:14:17.208Z,49.95
2019-02-25T20:16:18.718Z,49.85
2019-02-25T20:18:18.435Z,49.72
2019-02-25T20:20:20.065Z,49.66
2019-02-25T20:22:21.687Z,50.07
2019-02-25T20:24:23.816Z,49.89
2019-02-25T20:26:26.848Z,50.21
2019-02-25T20:28:26.874Z,49.28
2019-02-25T20:30:30.437Z,49.44
2019-02-25T20:32:31.830Z,49.48
2019-02-25T20:34:32.078Z,49.47
2019-02-25T20:36:33.295Z,49.11
2019-02-25T20:38:37.068Z,48.93
2019-02-25T20:40:36.682Z,49.95
2019-02-25T20:42:38.459Z,50.04
2019-02-25T20:44:40.070Z,48.17
2019-02-25T20:46:41.712Z,48.77
2019-02-25T20:48:46.443Z,49.61
2019-02-25T20:50:44.952Z,49.55
2019-02-25T20:52:46.587Z,49.81
2019-02-25T20:54:49.572Z,49.57
2019-02-25T20:56:51.185Z,50.02
2019-02-25T20:58:51.563Z,49.92
2019-02-25T21:00:53.178Z,49.77
2019-02-25T21:02:54.805Z,49.86
2019-02-25T21:04:58.130Z,50.47
2019-02-25T21:06:58.076Z,50.66
2019-02-25T21:09:00.375Z,50.72
2019-02-25T21:11:06.371Z,50.61
2019-02-25T21:13:03.005Z,50.60
2019-02-25T21:15:04.619Z,50.46
2019-02-25T21:17:06.261Z,50.40
2019-02-25T21:19:09.788Z,49.79
2019-02-25T21:21:11.855Z,48.97
2019-02-25T21:23:12.545Z,48.53
2019-02-25T21:25:12.941Z,48.42
2019-02-25T21:27:14.570Z,48.81
2019-02-25T21:29:16.165Z,48.83
2019-02-25T21:31:19.544Z,49.03
2019-02-25T21:33:19.896Z,48.47
2019-02-25T21:35:23.446Z,48.45
2019-02-25T21:37:23.414Z,48.44
2019-02-25T21:39:24.594Z,48.50
2019-02-25T21:41:26.199Z,48.23
2019-02-25T21:43:29.086Z,48.99
2019-02-25T21:45:32.110Z,49.10
2019-02-25T21:47:32.816Z,49.58
2019-02-25T21:49:34.323Z,49.75
2019-02-25T21:51:35.155Z,49.62
2019-02-25T21:53:36.097Z,49.45
2019-02-25T21:55:37.712Z,49.90
2019-02-25T21:57:39.368Z,49.69
2019-02-25T21:59:41.190Z,49.70
2019-02-25T22:01:42.769Z,48.68
2019-02-25T22:03:47.952Z,40.27
2019-02-25T22:05:49.380Z,46.26
2019-02-25T22:07:52.355Z,46.84
2019-02-25T22:09:49.357Z,47.25
2019-02-25T22:11:50.982Z,47.67
2019-02-25T22:13:52.573Z,48.02
2019-02-25T22:15:54.166Z,48.42
2019-02-25T22:17:55.780Z,48.82
2019-02-25T22:19:57.359Z,49.02
2019-02-25T22:22:00.427Z,49.30
2019-02-25T22:24:03.142Z,49.49
2019-02-25T22:26:02.304Z,49.77
2019-02-25T22:28:05.369Z,49.80
2019-02-25T22:30:07.397Z,50.06
2019-02-25T22:32:08.728Z,50.27
2019-02-25T22:34:11.045Z,50.30
2019-02-25T22:36:10.565Z,50.48
2019-02-25T22:38:12.203Z,50.42
2019-02-25T22:40:15.065Z,50.52
2019-02-25T22:42:15.478Z,50.76
2019-02-25T22:44:17.084Z,50.56
2019-02-25T22:46:18.690Z,50.73
2019-02-25T22:48:21.551Z,50.80
2019-02-25T22:50:21.951Z,50.86
2019-02-25T22:52:24.769Z,50.89
2019-02-25T22:54:25.251Z,50.93
2019-02-25T22:56:28.076Z,50.99
2019-02-25T22:58:28.518Z,51.05
2019-02-25T23:00:30.122Z,51.14
2019-02-25T23:02:31.769Z,51.14
2019-02-25T23:04:33.365Z,51.21
2019-02-25T23:06:34.990Z,51.00
2019-02-25T23:08:40.172Z,50.56
2019-02-25T23:10:41.971Z,50.40
2019-02-25T23:12:39.917Z,50.39
2019-02-25T23:14:42.531Z,50.70
2019-02-25T23:16:43.679Z,50.79
2019-02-25T23:18:44.846Z,51.05
2019-02-25T23:20:46.499Z,50.88
2019-02-25T23:22:48.094Z,51.20
2019-02-25T23:24:49.676Z,51.24
2019-02-25T23:26:52.923Z,51.35
2019-02-25T23:28:53.805Z,51.48
2019-02-25T23:30:55.455Z,51.59
2019-02-25T23:32:56.265Z,51.73
2019-02-25T23:37:04.918Z,51.73
2019-02-25T23:39:06.514Z,51.79
2019-02-25T23:41:09.895Z,51.84
2019-02-25T23:43:11.907Z,51.95
2019-02-25T23:45:12.986Z,51.96
2019-02-25T23:47:13.082Z,52.12
2019-02-25T23:49:14.673Z,52.13
2019-02-25T23:51:17.329Z,52.38
2019-02-25T23:53:17.917Z,52.28
2019-02-25T23:55:21.758Z,52.00
2019-02-25T23:57:21.746Z,52.31
2019-02-25T23:59:24.769Z,52.35
